createdAt,value
2018-08-28T00:01:24.873Z,7.50
2018-08-28T00:03:53.928Z,6.77
2018-08-28T00:06:22.604Z,7.83
2018-08-28T00:08:51.843Z,7.30
2018-08-28T00:11:20.425Z,6.70
2018-08-28T00:13:48.838Z,7.23
2018-08-28T00:16:17.591Z,7.47
2018-08-28T00:18:46.009Z,7.03
2018-08-28T00:21:14.407Z,6.37
2018-08-28T00:23:43.032Z,6.20
2018-08-28T00:26:11.416Z,7.17
2018-08-28T00:28:39.812Z,7.30
2018-08-28T00:31:08.260Z,6.90
2018-08-28T00:33:36.646Z,7.30
2018-08-28T00:36:05.234Z,7.77
2018-08-28T00:38:33.623Z,7.43
2018-08-28T00:41:02.040Z,6.97
2018-08-28T00:43:30.445Z,7.17
2018-08-28T00:45:58.845Z,7.43
2018-08-28T00:48:27.422Z,7.30
2018-08-28T00:50:55.823Z,8.10
2018-08-28T00:53:24.565Z,7.60
2018-08-28T00:55:52.968Z,6.70
2018-08-28T00:58:21.356Z,8.20
2018-08-28T01:00:49.867Z,6.07
2018-08-28T01:03:18.508Z,7.33
2018-08-28T01:05:46.885Z,7.30
2018-08-28T01:08:15.257Z,8.10
2018-08-28T01:10:43.796Z,7.80
2018-08-28T01:13:12.214Z,8.07
2018-08-28T01:15:40.612Z,7.87
2018-08-28T01:18:09.020Z,8.30
2018-08-28T01:20:37.404Z,8.57
2018-08-28T01:23:05.972Z,7.73
2018-08-28T01:25:34.377Z,8.63
2018-08-28T01:28:02.783Z,8.17
2018-08-28T01:30:34.439Z,8.37
2018-08-28T01:33:04.744Z,8.93
2018-08-28T01:35:33.345Z,8.30
2018-08-28T01:38:01.772Z,8.40
2018-08-28T01:40:30.595Z,8.80
2018-08-28T01:42:59.514Z,9.00
2018-08-28T01:45:28.167Z,9.63
2018-08-28T01:47:56.571Z,9.20
2018-08-28T01:50:24.989Z,8.90
2018-08-28T01:52:53.372Z,9.80
2018-08-28T01:55:21.778Z,9.73
2018-08-28T01:57:50.172Z,8.47
2018-08-28T02:00:18.609Z,8.20
2018-08-28T02:02:47.016Z,9.27
2018-08-28T02:05:15.400Z,8.33
2018-08-28T02:07:43.816Z,7.50
2018-08-28T02:10:12.244Z,10.13
2018-08-28T02:12:40.635Z,8.57
2018-08-28T02:15:09.156Z,8.83
2018-08-28T02:17:38.113Z,10.10
2018-08-28T02:20:06.548Z,9.93
2018-08-28T02:22:34.946Z,9.10
2018-08-28T02:25:03.394Z,8.40
2018-08-28T02:27:31.796Z,8.10
2018-08-28T02:30:00.224Z,9.43
2018-08-28T02:32:28.786Z,8.97
2018-08-28T02:34:57.465Z,8.70
2018-08-28T02:37:26.645Z,9.20
2018-08-28T02:39:55.044Z,8.87
2018-08-28T02:42:23.475Z,9.17
2018-08-28T02:44:52.432Z,9.10
2018-08-28T02:47:20.816Z,9.70
2018-08-28T02:49:49.708Z,8.77
2018-08-28T02:52:18.093Z,9.67
2018-08-28T02:54:46.484Z,9.90
2018-08-28T02:57:14.883Z,9.73
2018-08-28T02:59:43.279Z,10.00
2018-08-28T03:02:11.700Z,8.90
2018-08-28T03:04:40.084Z,9.40
2018-08-28T03:07:08.635Z,9.67
2018-08-28T03:09:37.253Z,8.73
2018-08-28T03:12:05.689Z,10.17
2018-08-28T03:14:34.101Z,10.87
2018-08-28T03:17:02.704Z,9.83
2018-08-28T03:19:31.105Z,10.20
2018-08-28T03:21:59.656Z,9.07
2018-08-28T03:24:28.061Z,9.40
2018-08-28T03:26:56.532Z,9.30
2018-08-28T03:29:24.917Z,8.20
2018-08-28T03:31:53.573Z,8.40
2018-08-28T03:34:21.953Z,8.70
2018-08-28T03:36:50.337Z,8.47
2018-08-28T03:39:18.742Z,9.63
2018-08-28T03:41:47.121Z,10.73
2018-08-28T03:44:15.510Z,9.30
2018-08-28T03:46:44.016Z,8.90
2018-08-28T03:49:12.414Z,8.90
2018-08-28T03:51:40.793Z,8.60
2018-08-28T03:54:09.381Z,8.57
2018-08-28T03:56:37.781Z,8.90
2018-08-28T03:59:06.173Z,9.97
2018-08-28T04:01:34.592Z,8.40
2018-08-28T04:04:04.000Z,9.23
2018-08-28T04:06:32.424Z,8.57
2018-08-28T04:09:00.853Z,8.23
2018-08-28T04:11:29.234Z,8.37
2018-08-28T04:13:57.832Z,8.20
2018-08-28T04:16:26.231Z,8.90
2018-08-28T04:18:54.630Z,8.10
2018-08-28T04:21:23.216Z,8.83
2018-08-28T04:23:51.610Z,8.90
2018-08-28T04:26:19.989Z,8.73
2018-08-28T04:28:48.395Z,8.97
2018-08-28T04:31:16.780Z,9.20
2018-08-28T04:33:45.227Z,8.63
2018-08-28T04:36:13.628Z,8.87
2018-08-28T04:38:42.040Z,9.07
2018-08-28T04:41:10.785Z,9.20
2018-08-28T04:43:39.209Z,9.80
2018-08-28T04:46:07.949Z,7.87
2018-08-28T04:48:36.604Z,8.53
2018-08-28T04:51:05.200Z,9.23
2018-08-28T04:53:34.610Z,9.47
2018-08-28T04:56:03.105Z,9.80
2018-08-28T04:58:31.549Z,10.00
2018-08-28T05:00:59.957Z,10.33
2018-08-28T05:03:28.484Z,9.77
2018-08-28T05:05:56.886Z,10.80
2018-08-28T05:08:25.488Z,9.97
2018-08-28T05:10:53.893Z,10.10
2018-08-28T05:13:22.661Z,9.60
2018-08-28T05:15:51.236Z,10.50
2018-08-28T05:18:19.604Z,9.77
2018-08-28T05:20:48.020Z,10.97
2018-08-28T05:23:16.509Z,10.17
2018-08-28T05:25:44.913Z,10.00
2018-08-28T05:28:13.474Z,9.83
2018-08-28T05:30:42.110Z,10.47
2018-08-28T05:33:10.499Z,10.30
2018-08-28T05:35:38.899Z,9.70
2018-08-28T05:38:07.636Z,10.10
2018-08-28T05:40:35.972Z,10.47
2018-08-28T05:43:04.456Z,10.43
2018-08-28T05:45:33.092Z,10.93
2018-08-28T05:48:01.514Z,10.63
2018-08-28T05:50:30.336Z,9.57
2018-08-28T05:52:58.765Z,10.13
2018-08-28T05:55:27.214Z,10.07
2018-08-28T05:57:55.757Z,10.63
2018-08-28T06:00:24.201Z,10.07
2018-08-28T06:02:52.745Z,9.30
2018-08-28T06:05:21.140Z,10.27
2018-08-28T06:07:49.541Z,10.20
2018-08-28T06:10:18.295Z,11.07
2018-08-28T06:12:46.745Z,10.70
2018-08-28T06:15:15.168Z,8.90
2018-08-28T06:17:43.982Z,8.70
2018-08-28T06:20:12.373Z,7.37
2018-08-28T06:22:40.772Z,7.87
2018-08-28T06:25:09.537Z,8.33
2018-08-28T06:27:37.981Z,8.07
2018-08-28T06:30:06.446Z,8.00
2018-08-28T06:32:34.840Z,7.73
2018-08-28T06:35:03.268Z,7.63
2018-08-28T06:37:32.049Z,6.83
2018-08-28T06:40:00.496Z,7.50
2018-08-28T06:42:28.888Z,7.70
2018-08-28T06:44:57.452Z,7.30
2018-08-28T06:47:25.855Z,7.13
2018-08-28T06:49:54.255Z,6.67
2018-08-28T06:52:22.813Z,7.00
2018-08-28T06:54:51.204Z,6.43
2018-08-28T06:57:19.604Z,5.47
2018-08-28T06:59:48.075Z,6.30
2018-08-28T07:02:16.547Z,6.30
2018-08-28T07:04:45.247Z,6.03
2018-08-28T07:07:13.674Z,6.07
2018-08-28T07:09:42.141Z,6.13
2018-08-28T07:12:10.854Z,5.77
2018-08-28T07:14:39.249Z,6.43
2018-08-28T07:17:07.824Z,6.20
2018-08-28T07:19:36.632Z,5.90
2018-08-28T07:22:05.272Z,6.37
2018-08-28T07:24:33.672Z,5.00
2018-08-28T07:27:02.087Z,5.23
2018-08-28T07:29:30.488Z,4.40
2018-08-28T07:31:59.141Z,4.73
2018-08-28T07:34:27.553Z,4.00
2018-08-28T07:36:56.117Z,4.40
2018-08-28T07:39:24.551Z,4.73
2018-08-28T07:41:52.979Z,4.80
2018-08-28T07:44:21.928Z,4.90
2018-08-28T07:46:50.508Z,4.60
2018-08-28T07:49:18.892Z,5.10
2018-08-28T07:51:47.556Z,4.73
2018-08-28T07:54:16.164Z,4.80
2018-08-28T07:56:44.549Z,4.87
2018-08-28T07:59:12.940Z,4.63
2018-08-28T08:01:41.384Z,5.23
2018-08-28T08:04:09.904Z,5.00
2018-08-28T08:06:38.461Z,4.60
2018-08-28T08:09:08.977Z,4.90
2018-08-28T08:11:37.904Z,5.23
2018-08-28T08:14:06.345Z,4.07
2018-08-28T08:16:34.900Z,5.30
2018-08-28T08:19:03.382Z,5.30
2018-08-28T08:21:31.841Z,5.20
2018-08-28T08:24:00.484Z,6.10
2018-08-28T08:26:28.893Z,4.63
2018-08-28T08:28:57.269Z,4.60
2018-08-28T08:31:25.692Z,5.50
2018-08-28T08:33:54.178Z,4.60
2018-08-28T08:36:22.648Z,4.90
2018-08-28T08:38:51.060Z,4.17
2018-08-28T08:41:19.493Z,4.90
2018-08-28T08:43:47.892Z,5.00
2018-08-28T08:46:16.520Z,4.77
2018-08-28T08:48:44.911Z,5.07
2018-08-28T08:51:13.296Z,4.67
2018-08-28T08:53:41.952Z,5.67
2018-08-28T08:56:10.354Z,5.40
2018-08-28T08:58:38.757Z,5.30
2018-08-28T09:01:07.243Z,6.17
2018-08-28T09:03:35.636Z,6.03
2018-08-28T09:06:04.309Z,5.43
2018-08-28T09:08:32.753Z,6.27
2018-08-28T09:11:01.171Z,6.20
2018-08-28T09:13:29.960Z,6.20
2018-08-28T09:15:58.330Z,6.47
2018-08-28T09:18:26.876Z,6.37
2018-08-28T09:20:55.404Z,6.67
2018-08-28T09:23:23.786Z,6.00
2018-08-28T09:25:52.193Z,6.70
2018-08-28T09:28:20.590Z,5.63
2018-08-28T09:30:49.001Z,6.67
2018-08-28T09:33:17.489Z,5.80
2018-08-28T09:35:45.877Z,6.83
2018-08-28T09:38:14.432Z,6.57
2018-08-28T09:40:43.292Z,6.63
2018-08-28T09:43:11.685Z,6.17
2018-08-28T09:45:40.338Z,7.10
2018-08-28T09:48:08.815Z,6.47
2018-08-28T09:50:37.175Z,6.67
2018-08-28T09:53:05.643Z,6.70
2018-08-28T09:55:34.068Z,6.20
2018-08-28T09:58:02.468Z,6.10
2018-08-28T10:00:30.959Z,5.63
2018-08-28T10:02:59.654Z,5.83
2018-08-28T10:05:28.083Z,5.27
2018-08-28T10:07:56.582Z,6.33
2018-08-28T10:10:24.881Z,5.87
2018-08-28T10:12:53.307Z,6.00
2018-08-28T10:15:21.701Z,6.40
2018-08-28T10:17:50.081Z,7.53
2018-08-28T10:20:18.484Z,5.97
2018-08-28T10:22:46.944Z,5.73
2018-08-28T10:25:15.341Z,6.33
2018-08-28T10:27:43.788Z,6.60
2018-08-28T10:30:12.258Z,6.03
2018-08-28T10:32:40.933Z,6.63
2018-08-28T10:35:09.360Z,6.80
2018-08-28T10:37:38.018Z,6.80
2018-08-28T10:40:06.574Z,6.13
2018-08-28T10:42:34.965Z,6.47
2018-08-28T10:45:03.662Z,6.10
2018-08-28T10:47:32.084Z,6.80
2018-08-28T10:50:00.489Z,7.20
2018-08-28T10:52:29.183Z,6.37
2018-08-28T10:54:57.586Z,5.90
2018-08-28T10:57:25.996Z,6.53
2018-08-28T10:59:54.417Z,6.27
2018-08-28T11:02:22.934Z,6.07
2018-08-28T11:04:51.365Z,6.43
2018-08-28T11:07:19.828Z,6.27
2018-08-28T11:09:48.303Z,6.27
2018-08-28T11:12:16.701Z,6.87
2018-08-28T11:14:45.261Z,6.43
2018-08-28T11:17:13.749Z,6.67
2018-08-28T11:19:42.145Z,6.60
2018-08-28T11:22:10.952Z,7.23
2018-08-28T11:24:39.389Z,6.43
2018-08-28T11:27:08.233Z,6.33
2018-08-28T11:29:36.694Z,6.20
2018-08-28T11:32:05.197Z,6.80
2018-08-28T11:34:33.624Z,6.50
2018-08-28T11:37:02.053Z,7.33
2018-08-28T11:39:30.549Z,6.23
2018-08-28T11:41:59.225Z,7.07
2018-08-28T11:44:27.653Z,6.10
2018-08-28T11:46:56.066Z,7.80
2018-08-28T11:49:24.660Z,6.03
2018-08-28T11:51:53.054Z,7.07
2018-08-28T11:54:21.470Z,7.03
2018-08-28T11:56:49.894Z,7.30
2018-08-28T11:59:18.334Z,6.90
2018-08-28T12:01:46.774Z,7.00
2018-08-28T12:04:15.337Z,6.93
2018-08-28T12:06:43.777Z,6.73
2018-08-28T12:09:12.512Z,7.00
2018-08-28T12:11:40.936Z,7.33
2018-08-28T12:14:09.499Z,8.10
2018-08-28T12:16:37.921Z,8.57
2018-08-28T12:19:06.525Z,7.97
2018-08-28T12:21:34.934Z,7.10
2018-08-28T12:24:03.361Z,7.10
2018-08-28T12:26:32.042Z,7.37
2018-08-28T12:29:00.721Z,7.00
2018-08-28T12:31:29.137Z,7.60
2018-08-28T12:33:57.525Z,7.60
2018-08-28T12:36:25.924Z,7.60
2018-08-28T12:38:54.336Z,6.83
2018-08-28T12:41:22.896Z,6.77
2018-08-28T12:43:51.332Z,7.77
2018-08-28T12:46:19.750Z,9.17
2018-08-28T12:48:48.168Z,7.73
2018-08-28T12:51:16.664Z,7.17
2018-08-28T12:53:45.097Z,6.70
2018-08-28T12:56:13.541Z,7.60
2018-08-28T12:58:41.930Z,7.60
2018-08-28T13:01:10.445Z,7.43
2018-08-28T13:03:38.885Z,7.93
2018-08-28T13:06:07.397Z,8.33
2018-08-28T13:08:35.823Z,7.93
2018-08-28T13:11:04.405Z,6.93
2018-08-28T13:13:32.806Z,7.63
2018-08-28T13:16:01.237Z,8.13
2018-08-28T13:18:29.722Z,8.53
2018-08-28T13:20:58.117Z,8.33
2018-08-28T13:23:26.551Z,8.33
2018-08-28T13:25:55.061Z,7.83
2018-08-28T13:28:23.411Z,8.23
2018-08-28T13:30:51.846Z,7.50
2018-08-28T13:33:20.245Z,8.10
2018-08-28T13:35:48.661Z,8.10
2018-08-28T13:38:17.145Z,7.90
2018-08-28T13:40:45.765Z,7.70
2018-08-28T13:43:13.960Z,8.40
2018-08-28T13:45:42.396Z,7.47
2018-08-28T13:48:10.842Z,8.70
2018-08-28T13:50:39.248Z,8.60
2018-08-28T13:53:07.722Z,8.30
2018-08-28T13:55:36.525Z,7.67
2018-08-28T13:58:05.113Z,7.93
2018-08-28T14:00:33.519Z,7.43
2018-08-28T14:03:01.950Z,9.10
2018-08-28T14:05:30.377Z,8.90
2018-08-28T14:07:58.774Z,8.20
2018-08-28T14:10:27.422Z,8.00
2018-08-28T14:12:55.822Z,7.60
2018-08-28T14:15:24.333Z,8.80
2018-08-28T14:17:52.893Z,8.30
2018-08-28T14:20:21.301Z,8.30
2018-08-28T14:22:49.837Z,7.70
2018-08-28T14:25:18.616Z,7.00
2018-08-28T14:27:47.630Z,6.77
2018-08-28T14:30:16.065Z,6.07
2018-08-28T14:32:44.477Z,6.43
2018-08-28T14:35:12.895Z,6.83
2018-08-28T14:37:41.336Z,6.87
2018-08-28T14:40:09.814Z,7.23
2018-08-28T14:42:38.387Z,7.77
2018-08-28T14:45:07.438Z,6.50
2018-08-28T14:47:35.879Z,6.40
2018-08-28T14:50:05.222Z,7.00
2018-08-28T14:52:33.541Z,6.40
2018-08-28T14:55:01.974Z,6.80
2018-08-28T14:57:30.593Z,7.27
2018-08-28T14:59:59.024Z,6.10
2018-08-28T15:02:27.446Z,6.40
2018-08-28T15:04:56.044Z,7.07
2018-08-28T15:07:24.460Z,6.23
2018-08-28T15:09:52.834Z,5.53
2018-08-28T15:12:21.260Z,6.63
2018-08-28T15:14:49.700Z,6.03
2018-08-28T15:17:18.102Z,6.27
2018-08-28T15:19:46.816Z,6.93
2018-08-28T15:22:15.240Z,7.73
2018-08-28T15:24:43.670Z,7.50
2018-08-28T15:27:12.197Z,7.70
2018-08-28T15:29:40.589Z,7.70
2018-08-28T15:32:09.200Z,6.83
2018-08-28T15:34:37.620Z,6.20
2018-08-28T15:37:06.096Z,8.03
2018-08-28T15:39:34.572Z,7.60
2018-08-28T15:42:02.990Z,7.00
2018-08-28T15:44:31.420Z,7.37
2018-08-28T15:46:59.962Z,9.20
2018-08-28T15:49:28.365Z,8.30
2018-08-28T15:51:56.776Z,7.57
2018-08-28T15:54:25.366Z,8.33
2018-08-28T15:56:53.788Z,7.60
2018-08-28T15:59:22.217Z,7.10
2018-08-28T16:01:50.884Z,7.83
2018-08-28T16:04:19.982Z,7.60
2018-08-28T16:06:50.177Z,8.50
2018-08-28T16:09:18.695Z,7.20
2018-08-28T16:11:47.737Z,6.90
2018-08-28T16:14:16.171Z,8.27
2018-08-28T16:16:45.753Z,6.80
2018-08-28T16:19:14.289Z,6.93
2018-08-28T16:22:00.000Z,6.57
2018-08-28T16:24:28.508Z,6.70
2018-08-28T16:26:56.924Z,6.93
2018-08-28T16:29:25.361Z,6.80
2018-08-28T16:31:53.777Z,6.87
2018-08-28T16:34:22.249Z,7.57
2018-08-28T16:36:50.725Z,7.40
2018-08-28T16:39:19.157Z,7.13
2018-08-28T16:41:47.684Z,7.53
2018-08-28T16:44:16.110Z,7.50
2018-08-28T16:46:44.621Z,7.23
2018-08-28T16:49:13.598Z,7.87
2018-08-28T16:51:42.145Z,7.10
2018-08-28T16:54:10.541Z,7.80
2018-08-28T16:56:39.003Z,7.67
2018-08-28T16:59:07.504Z,6.63
2018-08-28T17:01:36.058Z,7.93
2018-08-28T17:04:04.495Z,8.10
2018-08-28T17:06:32.915Z,6.77
2018-08-28T17:09:01.481Z,7.30
2018-08-28T17:11:29.958Z,7.30
2018-08-28T17:13:58.374Z,7.57
2018-08-28T17:16:27.105Z,7.63
2018-08-28T17:18:55.521Z,8.30
2018-08-28T17:21:23.948Z,6.97
2018-08-28T17:23:52.396Z,6.23
2018-08-28T17:26:20.802Z,7.27
2018-08-28T17:28:49.488Z,7.57
2018-08-28T17:31:18.320Z,6.87
2018-08-28T17:33:46.888Z,7.10
2018-08-28T17:36:15.561Z,6.90
2018-08-28T17:38:43.979Z,6.73
2018-08-28T17:41:12.469Z,6.67
2018-08-28T17:43:41.110Z,6.77
2018-08-28T17:46:09.528Z,6.50
2018-08-28T17:48:39.656Z,6.93
2018-08-28T17:51:08.157Z,6.90
2018-08-28T17:53:36.566Z,6.40
2018-08-28T17:56:05.075Z,6.70
2018-08-28T17:58:33.673Z,7.67
2018-08-28T18:01:02.080Z,7.67
2018-08-28T18:03:30.581Z,7.40
2018-08-28T18:05:59.079Z,7.20
2018-08-28T18:08:27.531Z,6.73
2018-08-28T18:10:56.126Z,7.77
2018-08-28T18:13:24.534Z,6.93
2018-08-28T18:15:52.961Z,7.20
2018-08-28T18:18:21.526Z,6.33
2018-08-28T18:20:49.937Z,7.23
2018-08-28T18:23:18.436Z,6.40
2018-08-28T18:25:46.913Z,7.40
2018-08-28T18:28:15.340Z,7.30
2018-08-28T18:30:43.794Z,7.70
2018-08-28T18:33:12.213Z,6.30
2018-08-28T18:35:40.696Z,7.70
2018-08-28T18:38:09.261Z,8.50
2018-08-28T18:40:37.692Z,7.17
2018-08-28T18:43:06.254Z,7.30
2018-08-28T18:45:34.704Z,7.30
2018-08-28T18:48:03.124Z,6.73
2018-08-28T18:50:31.603Z,7.10
2018-08-28T18:53:00.033Z,6.40
2018-08-28T18:55:28.509Z,7.10
2018-08-28T18:57:56.921Z,7.87
2018-08-28T19:00:25.403Z,7.90
2018-08-28T19:02:53.899Z,7.40
2018-08-28T19:05:22.400Z,7.77
2018-08-28T19:07:50.911Z,7.77
2018-08-28T19:10:19.369Z,7.77
2018-08-28T19:12:48.184Z,7.50
2018-08-28T19:15:16.790Z,8.00
2018-08-28T19:17:45.224Z,8.00
2018-08-28T19:20:13.632Z,8.27
2018-08-28T19:22:42.085Z,8.73
2018-08-28T19:25:11.105Z,8.30
2018-08-28T19:27:39.509Z,7.60
2018-08-28T19:30:08.418Z,8.53
2018-08-28T19:32:36.833Z,9.20
2018-08-28T19:35:05.305Z,9.40
2018-08-28T19:37:33.790Z,9.93
2018-08-28T19:40:02.260Z,9.17
2018-08-28T19:42:30.884Z,9.67
2018-08-28T19:44:59.321Z,8.83
2018-08-28T19:47:27.869Z,8.37
2018-08-28T19:49:56.553Z,8.37
2018-08-28T19:52:25.091Z,8.60
2018-08-28T19:54:53.562Z,9.23
2018-08-28T19:57:21.981Z,8.33
2018-08-28T19:59:50.409Z,8.87
2018-08-28T20:02:18.842Z,9.87
2018-08-28T20:04:47.305Z,8.70
2018-08-28T20:07:15.858Z,8.07
2018-08-28T20:09:44.558Z,8.70
2018-08-28T20:12:13.029Z,8.60
2018-08-28T20:14:41.546Z,8.80
2018-08-28T20:17:10.005Z,9.33
2018-08-28T20:19:38.425Z,9.30
2018-08-28T20:22:09.156Z,8.90
2018-08-28T20:24:37.576Z,9.83
2018-08-28T20:27:06.486Z,10.03
2018-08-28T20:29:35.046Z,8.77
2018-08-28T20:32:03.542Z,9.40
2018-08-28T20:34:31.885Z,9.30
2018-08-28T20:37:00.404Z,8.97
2018-08-28T20:39:28.810Z,9.50
2018-08-28T20:41:57.327Z,10.17
2018-08-28T20:44:25.763Z,10.20
2018-08-28T20:46:54.198Z,9.00
2018-08-28T20:49:22.636Z,7.83
2018-08-28T20:51:51.125Z,10.20
2018-08-28T20:54:19.689Z,9.73
2018-08-28T20:56:48.121Z,9.40
2018-08-28T20:59:16.544Z,10.13
2018-08-28T21:01:45.006Z,9.20
2018-08-28T21:04:13.418Z,10.60
2018-08-28T21:06:41.814Z,9.87
2018-08-28T21:09:10.250Z,10.00
2018-08-28T21:11:38.827Z,10.07
2018-08-28T21:14:07.425Z,10.20
2018-08-28T21:16:35.837Z,9.43
2018-08-28T21:19:04.292Z,9.67
2018-08-28T21:21:32.709Z,10.03
2018-08-28T21:24:01.158Z,10.97
2018-08-28T21:26:29.669Z,9.97
2018-08-28T21:28:58.078Z,9.43
2018-08-28T21:31:26.541Z,9.30
2018-08-28T21:33:54.956Z,9.70
2018-08-28T21:36:23.392Z,9.17
2018-08-28T21:38:51.813Z,8.60
2018-08-28T21:41:20.680Z,9.20
2018-08-28T21:43:49.122Z,8.53
2018-08-28T21:46:17.540Z,9.23
2018-08-28T21:48:45.940Z,8.47
2018-08-28T21:51:14.389Z,9.90
2018-08-28T21:53:42.804Z,8.57
2018-08-28T21:56:11.258Z,8.90
2018-08-28T21:58:39.720Z,8.20
2018-08-28T22:01:10.189Z,8.80
2018-08-28T22:03:39.696Z,8.80
2018-08-28T22:06:13.704Z,8.83
2018-08-28T22:08:42.138Z,9.40
2018-08-28T22:11:10.572Z,9.23
2018-08-28T22:13:39.126Z,8.67
2018-08-28T22:16:07.825Z,8.70
2018-08-28T22:18:36.496Z,8.50
2018-08-28T22:21:05.116Z,9.03
2018-08-28T22:23:33.517Z,8.80
2018-08-28T22:26:01.944Z,8.30
2018-08-28T22:28:31.306Z,8.13
2018-08-28T22:30:59.839Z,8.27
2018-08-28T22:33:28.426Z,8.30
2018-08-28T22:35:57.038Z,7.90
2018-08-28T22:38:26.158Z,7.90
2018-08-28T22:40:54.570Z,7.63
2018-08-28T22:43:24.072Z,8.07
2018-08-28T22:45:52.977Z,7.97
2018-08-28T22:48:21.420Z,8.20
2018-08-28T22:50:49.826Z,7.70
2018-08-28T22:53:18.199Z,7.77
2018-08-28T22:55:46.653Z,8.93
2018-08-28T22:58:15.048Z,7.43
2018-08-28T23:00:43.520Z,9.73
2018-08-28T23:03:11.943Z,8.07
2018-08-28T23:05:40.380Z,7.70
2018-08-28T23:08:08.776Z,8.10
2018-08-28T23:10:37.210Z,8.43
2018-08-28T23:13:05.813Z,7.80
2018-08-28T23:15:34.200Z,8.03
2018-08-28T23:18:02.620Z,7.90
2018-08-28T23:20:31.112Z,8.20
2018-08-28T23:22:59.525Z,8.27
2018-08-28T23:25:27.945Z,7.90
2018-08-28T23:27:56.337Z,7.77
2018-08-28T23:30:24.832Z,8.87
2018-08-28T23:32:53.209Z,7.50
2018-08-28T23:35:21.907Z,8.33
2018-08-28T23:37:50.317Z,8.43
2018-08-28T23:40:18.701Z,8.50
2018-08-28T23:42:47.109Z,7.90
2018-08-28T23:45:15.529Z,8.50
2018-08-28T23:47:43.926Z,8.30
2018-08-28T23:50:12.321Z,8.27
2018-08-28T23:52:41.667Z,8.50
2018-08-28T23:55:10.090Z,8.70
2018-08-28T23:57:38.501Z,8.77
